createdAt,value
2023-05-04T00:00:49.400Z,9.19
2023-05-04T00:03:21.313Z,9.15
2023-05-04T00:05:53.287Z,9.04
2023-05-04T00:08:24.905Z,8.98
2023-05-04T00:10:57.360Z,8.87
2023-05-04T00:13:29.233Z,8.89
2023-05-04T00:16:00.946Z,8.86
2023-05-04T00:18:32.953Z,8.78
2023-05-04T00:21:04.682Z,8.73
2023-05-04T00:23:36.394Z,8.65
2023-05-04T00:26:08.188Z,8.53
2023-05-04T00:28:40.417Z,8.54
2023-05-04T00:31:12.293Z,8.53
2023-05-04T00:33:43.936Z,8.55
2023-05-04T00:36:15.743Z,8.52
2023-05-04T00:38:52.259Z,8.42
2023-05-04T00:41:24.361Z,8.38
2023-05-04T00:43:56.388Z,8.39
2023-05-04T00:46:29.198Z,8.46
2023-05-04T00:49:02.416Z,8.43
2023-05-04T00:51:34.676Z,8.38
2023-05-04T00:54:06.598Z,8.33
2023-05-04T00:56:42.257Z,8.28
2023-05-04T00:59:14.490Z,8.24
2023-05-04T01:01:46.189Z,8.20
2023-05-04T01:04:18.616Z,8.13
2023-05-04T01:07:00.410Z,8.02
2023-05-04T01:09:37.393Z,7.88
2023-05-04T01:12:13.883Z,7.86
2023-05-04T01:14:47.762Z,7.88
2023-05-04T01:17:19.619Z,7.87
2023-05-04T01:19:53.982Z,7.90
2023-05-04T01:22:26.665Z,7.94
2023-05-04T01:24:59.674Z,7.91
2023-05-04T01:27:38.585Z,7.95
2023-05-04T01:30:17.896Z,8.07
2023-05-04T01:32:50.901Z,8.08
2023-05-04T01:35:23.204Z,8.04
2023-05-04T01:37:55.910Z,8.03
2023-05-04T01:40:26.271Z,8.06
2023-05-04T01:42:58.314Z,8.07
2023-05-04T01:45:30.908Z,8.07
2023-05-04T01:48:02.678Z,8.07
2023-05-04T01:50:34.847Z,8.06
2023-05-04T01:53:07.782Z,8.00
2023-05-04T01:55:39.471Z,7.85
2023-05-04T01:58:11.278Z,7.78
2023-05-04T02:00:43.024Z,7.73
2023-05-04T02:03:14.860Z,7.74
2023-05-04T02:05:46.598Z,7.74
2023-05-04T02:08:18.277Z,7.72
2023-05-04T02:10:50.209Z,7.81
2023-05-04T02:13:22.004Z,7.88
2023-05-04T02:15:53.814Z,7.94
2023-05-04T02:18:25.576Z,7.89
2023-05-04T02:20:57.335Z,7.86
2023-05-04T02:23:29.662Z,7.82
2023-05-04T02:26:03.518Z,7.75
2023-05-04T02:28:35.676Z,7.74
2023-05-04T02:31:08.089Z,7.74
2023-05-04T02:33:40.323Z,7.74
2023-05-04T02:36:13.457Z,7.65
2023-05-04T02:38:45.120Z,7.52
2023-05-04T02:41:16.885Z,7.56
2023-05-04T02:43:49.759Z,7.60
2023-05-04T02:46:21.718Z,7.58
2023-05-04T02:48:53.571Z,7.61
2023-05-04T02:51:25.220Z,7.57
2023-05-04T02:53:57.012Z,7.49
2023-05-04T02:56:28.767Z,7.33
2023-05-04T02:59:00.612Z,7.22
2023-05-04T03:01:34.175Z,7.16
2023-05-04T03:04:08.054Z,7.21
2023-05-04T03:06:39.879Z,7.31
2023-05-04T03:09:12.451Z,7.29
2023-05-04T03:11:44.297Z,7.27
2023-05-04T03:14:16.238Z,7.14
2023-05-04T03:16:48.041Z,7.13
2023-05-04T03:19:22.412Z,7.26
2023-05-04T03:21:54.159Z,7.28
2023-05-04T03:24:26.231Z,7.26
2023-05-04T03:26:57.854Z,7.28
2023-05-04T03:29:30.051Z,7.22
2023-05-04T03:32:02.235Z,7.23
2023-05-04T03:34:34.282Z,7.10
2023-05-04T03:37:08.105Z,6.98
2023-05-04T03:39:40.118Z,6.93
2023-05-04T03:42:13.057Z,6.88
2023-05-04T03:44:46.501Z,6.87
2023-05-04T03:47:16.793Z,6.83
2023-05-04T03:49:48.686Z,6.80
2023-05-04T03:52:20.531Z,6.77
2023-05-04T03:54:52.306Z,6.77
2023-05-04T03:57:24.706Z,6.78
2023-05-04T03:59:57.908Z,6.79
2023-05-04T04:02:30.654Z,6.73
2023-05-04T04:05:02.947Z,6.68
2023-05-04T04:07:34.726Z,6.75
2023-05-04T04:10:07.705Z,6.73
2023-05-04T04:12:39.482Z,6.66
2023-05-04T04:15:12.266Z,6.62
2023-05-04T04:17:44.160Z,6.73
2023-05-04T04:20:17.588Z,6.83
2023-05-04T04:22:49.262Z,6.83
2023-05-04T04:25:21.316Z,6.78
2023-05-04T04:27:53.269Z,6.83
2023-05-04T04:30:24.981Z,6.91
2023-05-04T04:32:57.286Z,6.98
2023-05-04T04:35:29.066Z,7.04
2023-05-04T04:38:03.408Z,7.13
2023-05-04T04:40:35.959Z,7.31
2023-05-04T04:43:07.646Z,7.37
2023-05-04T04:45:41.210Z,7.40
2023-05-04T04:48:14.092Z,7.56
2023-05-04T04:50:44.541Z,7.72
2023-05-04T04:53:16.276Z,7.85
2023-05-04T04:55:48.244Z,7.91
2023-05-04T04:58:19.904Z,7.96
2023-05-04T05:00:52.198Z,7.98
2023-05-04T05:03:24.013Z,8.11
2023-05-04T05:05:56.336Z,8.13
2023-05-04T05:08:28.140Z,8.22
2023-05-04T05:11:00.178Z,8.29
2023-05-04T05:13:33.384Z,8.38
2023-05-04T05:16:05.970Z,8.41
2023-05-04T05:18:36.347Z,8.48
2023-05-04T05:21:09.156Z,8.61
2023-05-04T05:23:39.318Z,8.73
2023-05-04T05:26:11.288Z,8.81
2023-05-04T05:28:43.253Z,8.88
2023-05-04T05:31:15.030Z,8.96
2023-05-04T05:33:46.783Z,9.04
2023-05-04T05:36:18.692Z,9.13
2023-05-04T05:38:50.705Z,9.23
2023-05-04T05:41:23.113Z,9.33
2023-05-04T05:43:54.760Z,9.42
2023-05-04T05:46:28.016Z,9.50
2023-05-04T05:49:00.123Z,9.56
2023-05-04T05:51:31.980Z,9.62
2023-05-04T05:54:03.791Z,9.71
2023-05-04T05:56:35.611Z,9.77
2023-05-04T05:59:07.358Z,9.84
2023-05-04T06:01:39.480Z,9.95
2023-05-04T06:04:11.533Z,10.04
2023-05-04T06:06:45.810Z,10.11
2023-05-04T06:09:18.398Z,10.14
2023-05-04T06:11:50.391Z,10.23
2023-05-04T06:14:22.121Z,10.33
2023-05-04T06:16:53.960Z,10.42
2023-05-04T06:19:26.641Z,10.50
2023-05-04T06:21:56.890Z,10.58
2023-05-04T06:24:29.848Z,10.66
2023-05-04T06:27:02.404Z,10.75
2023-05-04T06:29:34.185Z,10.84
2023-05-04T06:32:06.985Z,10.90
2023-05-04T06:34:38.996Z,10.99
2023-05-04T06:37:12.976Z,11.06
2023-05-04T06:39:46.304Z,11.13
2023-05-04T06:42:18.277Z,11.21
2023-05-04T06:44:53.508Z,11.30
2023-05-04T06:47:25.405Z,11.38
2023-05-04T06:49:58.049Z,11.45
2023-05-04T06:52:29.720Z,11.53
2023-05-04T06:55:02.098Z,11.60
2023-05-04T06:57:33.863Z,11.68
2023-05-04T07:00:08.286Z,11.75
2023-05-04T07:02:39.983Z,11.80
2023-05-04T07:05:12.484Z,11.87
2023-05-04T07:07:44.234Z,11.94
2023-05-04T07:10:15.974Z,12.03
2023-05-04T07:12:54.410Z,12.09
2023-05-04T07:15:28.550Z,12.12
2023-05-04T07:18:01.444Z,12.23
2023-05-04T07:20:33.746Z,12.34
2023-05-04T07:23:05.713Z,12.40
2023-05-04T07:25:37.494Z,12.46
2023-05-04T07:28:09.178Z,12.51
2023-05-04T07:30:41.028Z,12.55
2023-05-04T07:33:13.007Z,12.60
2023-05-04T07:35:44.817Z,12.66
2023-05-04T07:38:16.492Z,12.75
2023-05-04T07:40:48.175Z,12.83
2023-05-04T07:43:20.218Z,12.86
2023-05-04T07:45:53.727Z,12.89
2023-05-04T07:48:26.549Z,12.96
2023-05-04T07:50:59.130Z,13.02
2023-05-04T07:53:30.987Z,13.10
2023-05-04T07:56:11.161Z,13.14
2023-05-04T07:58:43.043Z,13.17
2023-05-04T08:01:15.120Z,13.21
2023-05-04T08:03:46.835Z,13.26
2023-05-04T08:06:18.592Z,13.29
2023-05-04T08:09:00.654Z,13.33
2023-05-04T08:11:38.293Z,13.36
2023-05-04T08:14:10.568Z,13.36
2023-05-04T08:16:42.373Z,13.40
2023-05-04T08:19:14.471Z,13.46
2023-05-04T08:21:46.146Z,13.53
2023-05-04T08:24:19.366Z,13.62
2023-05-04T08:27:03.701Z,13.72
2023-05-04T08:29:39.148Z,13.78
2023-05-04T08:32:11.108Z,13.77
2023-05-04T08:34:43.020Z,13.76
2023-05-04T08:37:14.857Z,13.78
2023-05-04T08:39:47.114Z,13.83
2023-05-04T08:42:29.849Z,13.95
2023-05-04T08:45:01.880Z,14.09
2023-05-04T08:47:33.800Z,14.15
2023-05-04T08:50:07.489Z,14.23
2023-05-04T08:52:44.172Z,14.27
2023-05-04T08:55:17.670Z,14.29
2023-05-04T08:57:51.449Z,14.38
2023-05-04T09:00:24.296Z,14.53
2023-05-04T09:02:56.904Z,14.59
2023-05-04T09:05:29.306Z,14.58
2023-05-04T09:08:01.032Z,14.68
2023-05-04T09:10:34.276Z,14.73
2023-05-04T09:13:06.225Z,14.80
2023-05-04T09:15:38.271Z,14.87
2023-05-04T09:18:10.413Z,14.95
2023-05-04T09:20:49.271Z,15.09
2023-05-04T09:23:22.397Z,15.20
2023-05-04T09:25:55.225Z,15.23
2023-05-04T09:28:35.442Z,15.26
2023-05-04T09:31:08.182Z,15.34
2023-05-04T09:33:41.532Z,15.39
2023-05-04T09:36:18.546Z,15.45
2023-05-04T09:38:50.873Z,15.53
2023-05-04T09:41:34.290Z,15.70
2023-05-04T09:44:06.568Z,15.76
2023-05-04T09:46:38.636Z,15.84
2023-05-04T09:49:10.843Z,16.02
2023-05-04T09:51:43.040Z,16.13
2023-05-04T09:54:17.067Z,16.27
2023-05-04T09:56:53.423Z,16.31
2023-05-04T09:59:31.412Z,16.42
2023-05-04T10:02:14.501Z,16.64
2023-05-04T10:04:58.406Z,16.87
2023-05-04T10:07:32.785Z,16.91
2023-05-04T10:10:05.805Z,17.02
2023-05-04T10:12:37.570Z,17.18
2023-05-04T10:15:12.666Z,17.20
2023-05-04T10:18:02.497Z,17.25
2023-05-04T10:20:54.770Z,17.33
2023-05-04T10:23:47.984Z,17.41
2023-05-04T10:26:42.750Z,17.68
2023-05-04T10:29:23.907Z,17.90
2023-05-04T10:31:56.829Z,17.83
2023-05-04T10:34:30.717Z,17.89
2023-05-04T10:37:04.116Z,18.09
2023-05-04T10:39:36.431Z,18.15
2023-05-04T10:42:09.353Z,18.17
2023-05-04T10:44:53.058Z,18.21
2023-05-04T10:47:33.265Z,18.30
2023-05-04T10:50:06.952Z,18.37
2023-05-04T10:52:50.240Z,18.55
2023-05-04T10:55:23.191Z,18.56
2023-05-04T10:57:56.733Z,18.60
2023-05-04T11:00:39.395Z,18.50
2023-05-04T11:03:12.108Z,18.36
2023-05-04T11:05:45.025Z,18.32
2023-05-04T11:08:21.872Z,18.46
2023-05-04T11:11:03.526Z,18.50
2023-05-04T11:13:37.194Z,18.54
2023-05-04T11:16:09.575Z,18.41
2023-05-04T11:18:42.058Z,18.42
2023-05-04T11:21:13.753Z,18.51
2023-05-04T11:23:45.474Z,18.74
2023-05-04T11:26:17.218Z,18.73
2023-05-04T11:28:49.323Z,18.65
2023-05-04T11:31:23.739Z,18.77
2023-05-04T11:33:56.359Z,18.72
2023-05-04T11:36:28.715Z,18.73
2023-05-04T11:39:00.978Z,18.47
2023-05-04T11:41:32.865Z,18.34
2023-05-04T11:44:06.244Z,18.24
2023-05-04T11:46:38.434Z,18.35
2023-05-04T11:49:10.365Z,18.59
2023-05-04T11:51:42.364Z,18.85
2023-05-04T11:54:23.420Z,19.10
2023-05-04T11:56:56.006Z,19.20
2023-05-04T11:59:27.719Z,19.25
2023-05-04T12:02:00.110Z,19.47
2023-05-04T12:04:35.216Z,19.67
2023-05-04T12:07:10.373Z,19.78
2023-05-04T12:09:49.422Z,19.75
2023-05-04T12:12:22.148Z,19.67
2023-05-04T12:14:53.164Z,19.66
2023-05-04T12:17:25.171Z,19.65
2023-05-04T12:19:58.094Z,19.76
2023-05-04T12:22:35.739Z,19.61
2023-05-04T12:25:11.236Z,19.38
2023-05-04T12:27:44.392Z,19.32
2023-05-04T12:30:16.803Z,19.37
2023-05-04T12:32:48.507Z,19.20
2023-05-04T12:35:20.817Z,19.19
2023-05-04T12:37:53.002Z,19.38
2023-05-04T12:40:28.604Z,19.43
2023-05-04T12:43:00.805Z,19.43
2023-05-04T12:45:32.735Z,19.51
2023-05-04T12:48:04.912Z,19.47
2023-05-04T12:50:36.668Z,19.54
2023-05-04T12:53:08.370Z,19.53
2023-05-04T12:55:41.278Z,19.70
2023-05-04T12:58:13.261Z,19.79
2023-05-04T13:00:46.148Z,19.91
2023-05-04T13:03:18.335Z,20.07
2023-05-04T13:05:50.942Z,20.29
2023-05-04T13:08:23.558Z,20.44
2023-05-04T13:10:53.739Z,20.48
2023-05-04T13:13:28.953Z,20.48
2023-05-04T13:16:00.770Z,20.49
2023-05-04T13:18:32.782Z,20.44
2023-05-04T13:21:04.749Z,20.42
2023-05-04T13:23:36.863Z,20.31
2023-05-04T13:26:08.598Z,20.32
2023-05-04T13:28:40.904Z,20.44
2023-05-04T13:31:12.787Z,20.51
2023-05-04T13:33:45.374Z,20.66
2023-05-04T13:36:15.556Z,20.47
2023-05-04T13:38:47.664Z,20.69
2023-05-04T13:41:19.527Z,20.85
2023-05-04T13:43:51.884Z,20.94
2023-05-04T13:46:24.317Z,20.95
2023-05-04T13:48:57.168Z,21.04
2023-05-04T13:51:29.169Z,21.22
2023-05-04T13:54:02.698Z,21.31
2023-05-04T13:56:34.645Z,21.43
2023-05-04T13:59:06.496Z,21.50
2023-05-04T14:01:38.638Z,21.70
2023-05-04T14:04:10.953Z,21.77
2023-05-04T14:06:43.109Z,21.77
2023-05-04T14:09:15.130Z,21.66
2023-05-04T14:11:47.646Z,21.47
2023-05-04T14:14:18.083Z,21.56
2023-05-04T14:16:49.879Z,21.61
2023-05-04T14:19:21.708Z,21.64
2023-05-04T14:21:53.552Z,21.68
2023-05-04T14:24:26.256Z,21.54
2023-05-04T14:27:07.132Z,21.65
2023-05-04T14:29:39.157Z,22.00
2023-05-04T14:32:11.379Z,21.98
2023-05-04T14:34:43.311Z,22.05
2023-05-04T14:37:15.054Z,21.79
2023-05-04T14:39:47.592Z,21.89
2023-05-04T14:42:19.299Z,21.96
2023-05-04T14:44:51.149Z,22.13
2023-05-04T14:47:22.957Z,22.22
2023-05-04T14:49:54.654Z,22.29
2023-05-04T14:52:26.403Z,22.29
2023-05-04T14:54:58.088Z,22.06
2023-05-04T14:57:29.880Z,22.22
2023-05-04T15:00:07.548Z,22.33
2023-05-04T15:02:40.123Z,22.36
2023-05-04T15:05:12.692Z,22.17
2023-05-04T15:07:44.549Z,22.23
2023-05-04T15:10:16.450Z,22.42
2023-05-04T15:12:48.452Z,22.51
2023-05-04T15:15:20.636Z,22.45
2023-05-04T15:17:52.630Z,22.72
2023-05-04T15:20:24.493Z,22.88
2023-05-04T15:22:56.290Z,22.51
2023-05-04T15:25:28.253Z,22.38
2023-05-04T15:27:59.975Z,22.13
2023-05-04T15:30:31.708Z,22.01
2023-05-04T15:33:05.508Z,21.96
2023-05-04T15:35:38.384Z,21.61
2023-05-04T15:38:08.948Z,21.31
2023-05-04T15:40:40.950Z,21.30
2023-05-04T15:43:13.126Z,21.36
2023-05-04T15:45:44.828Z,21.42
2023-05-04T15:48:16.561Z,21.48
2023-05-04T15:50:48.344Z,21.75
2023-05-04T15:53:20.213Z,21.83
2023-05-04T15:55:52.395Z,21.97
2023-05-04T15:58:24.274Z,22.07
2023-05-04T16:00:56.218Z,21.74
2023-05-04T16:03:28.024Z,21.41
2023-05-04T16:05:59.725Z,21.22
2023-05-04T16:08:31.678Z,21.15
2023-05-04T16:11:04.232Z,21.03
2023-05-04T16:13:35.147Z,21.00
2023-05-04T16:16:08.238Z,20.90
2023-05-04T16:18:40.096Z,20.93
2023-05-04T16:21:14.014Z,20.86
2023-05-04T16:23:46.185Z,20.77
2023-05-04T16:26:18.069Z,20.71
2023-05-04T16:28:49.837Z,20.58
2023-05-04T16:31:22.082Z,20.54
2023-05-04T16:33:54.407Z,20.52
2023-05-04T16:36:26.735Z,20.42
2023-05-04T16:38:58.496Z,20.22
2023-05-04T16:41:30.831Z,20.25
2023-05-04T16:44:02.451Z,20.21
2023-05-04T16:46:34.305Z,20.05
2023-05-04T16:49:08.769Z,19.76
2023-05-04T16:51:43.422Z,19.56
2023-05-04T16:54:16.337Z,19.44
2023-05-04T16:56:48.424Z,19.33
2023-05-04T16:59:20.272Z,19.29
2023-05-04T17:01:52.563Z,19.23
2023-05-04T17:04:25.332Z,19.05
2023-05-04T17:06:57.016Z,18.85
2023-05-04T17:09:28.920Z,18.78
2023-05-04T17:12:00.995Z,18.80
2023-05-04T17:14:33.063Z,18.70
2023-05-04T17:17:04.768Z,18.65
2023-05-04T17:19:39.120Z,18.53
2023-05-04T17:22:11.636Z,18.56
2023-05-04T17:24:45.406Z,18.44
2023-05-04T17:27:17.708Z,18.36
2023-05-04T17:29:49.400Z,18.26
2023-05-04T17:32:21.231Z,18.19
2023-05-04T17:34:52.938Z,18.12
2023-05-04T17:37:24.725Z,18.10
2023-05-04T17:39:56.519Z,18.06
2023-05-04T17:42:29.261Z,17.92
2023-05-04T17:44:59.488Z,17.86
2023-05-04T17:47:31.157Z,17.79
2023-05-04T17:50:03.201Z,17.74
2023-05-04T17:52:35.267Z,17.70
2023-05-04T17:55:08.294Z,17.61
2023-05-04T17:57:40.231Z,17.55
2023-05-04T18:00:14.440Z,17.52
2023-05-04T18:02:47.068Z,17.53
2023-05-04T18:05:19.475Z,17.45
2023-05-04T18:07:51.366Z,17.42
2023-05-04T18:10:23.097Z,17.36
2023-05-04T18:12:56.593Z,17.34
2023-05-04T18:15:28.406Z,17.43
2023-05-04T18:18:00.583Z,17.41
2023-05-04T18:20:32.276Z,17.26
2023-05-04T18:23:03.951Z,17.22
2023-05-04T18:25:37.262Z,17.24
2023-05-04T18:28:10.125Z,17.13
2023-05-04T18:30:41.927Z,17.12
2023-05-04T18:33:14.089Z,17.15
2023-05-04T18:35:46.200Z,17.17
2023-05-04T18:38:17.990Z,17.14
2023-05-04T18:40:53.042Z,17.08
2023-05-04T18:43:24.835Z,17.03
2023-05-04T18:45:56.708Z,17.09
2023-05-04T18:48:28.583Z,17.05
2023-05-04T18:51:01.082Z,17.02
2023-05-04T18:53:33.243Z,16.86
2023-05-04T18:56:06.293Z,16.72
2023-05-04T18:58:38.884Z,16.66
2023-05-04T19:01:10.997Z,16.66
2023-05-04T19:03:44.844Z,16.62
2023-05-04T19:06:16.564Z,16.65
2023-05-04T19:08:48.331Z,16.72
2023-05-04T19:11:20.012Z,16.70
2023-05-04T19:13:51.696Z,16.58
2023-05-04T19:16:23.419Z,16.61
2023-05-04T19:18:55.642Z,16.65
2023-05-04T19:21:28.592Z,16.67
2023-05-04T19:24:00.434Z,16.56
2023-05-04T19:26:32.300Z,16.49
2023-05-04T19:29:04.276Z,16.54
2023-05-04T19:31:36.283Z,16.56
2023-05-04T19:34:08.154Z,16.58
2023-05-04T19:36:39.938Z,16.57
2023-05-04T19:39:11.939Z,16.60
2023-05-04T19:41:43.790Z,16.58
2023-05-04T19:44:15.724Z,16.61
2023-05-04T19:46:51.564Z,16.61
2023-05-04T19:49:24.849Z,16.60
2023-05-04T19:51:56.842Z,16.57
2023-05-04T19:54:28.740Z,16.56
2023-05-04T19:57:00.986Z,16.52
2023-05-04T19:59:32.666Z,16.49
2023-05-04T20:02:04.774Z,16.43
2023-05-04T20:04:36.997Z,16.45
2023-05-04T20:07:08.844Z,16.45
2023-05-04T20:09:40.584Z,16.38
2023-05-04T20:12:12.367Z,16.37
2023-05-04T20:14:44.294Z,16.33
2023-05-04T20:17:15.994Z,16.35
2023-05-04T20:19:48.255Z,16.35
2023-05-04T20:22:20.152Z,16.36
2023-05-04T20:24:51.891Z,16.34
2023-05-04T20:27:26.114Z,16.32
2023-05-04T20:29:57.893Z,16.29
2023-05-04T20:32:31.117Z,16.25
2023-05-04T20:35:03.084Z,16.19
2023-05-04T20:37:34.908Z,16.15
2023-05-04T20:40:08.614Z,16.11
2023-05-04T20:42:40.742Z,16.11
2023-05-04T20:45:13.306Z,16.05
2023-05-04T20:47:45.780Z,15.99
2023-05-04T20:50:18.859Z,15.98
2023-05-04T20:52:50.611Z,15.92
2023-05-04T20:55:22.889Z,15.91
2023-05-04T20:57:54.698Z,15.90
2023-05-04T21:00:26.589Z,15.92
2023-05-04T21:02:58.601Z,15.90
2023-05-04T21:05:30.538Z,15.88
2023-05-04T21:08:02.304Z,15.82
2023-05-04T21:10:34.152Z,15.81
2023-05-04T21:13:06.038Z,15.76
2023-05-04T21:15:38.516Z,15.72
2023-05-04T21:18:10.789Z,15.72
2023-05-04T21:20:41.596Z,15.68
2023-05-04T21:23:13.747Z,15.63
2023-05-04T21:25:45.728Z,15.59
2023-05-04T21:28:17.471Z,15.59
2023-05-04T21:30:49.184Z,15.53
2023-05-04T21:33:20.929Z,15.56
2023-05-04T21:35:52.678Z,15.48
2023-05-04T21:38:24.414Z,15.40
2023-05-04T21:40:56.165Z,15.42
2023-05-04T21:43:28.110Z,15.38
2023-05-04T21:45:59.831Z,15.37
2023-05-04T21:48:32.999Z,15.39
2023-05-04T21:51:04.817Z,15.43
2023-05-04T21:53:36.691Z,15.41
2023-05-04T21:56:12.579Z,15.39
2023-05-04T21:58:44.505Z,15.29
2023-05-04T22:01:18.952Z,15.34
2023-05-04T22:03:52.693Z,15.34
2023-05-04T22:06:25.799Z,15.37
2023-05-04T22:08:57.704Z,15.34
2023-05-04T22:11:29.646Z,15.30
2023-05-04T22:14:01.697Z,15.27
2023-05-04T22:16:33.493Z,15.24
2023-05-04T22:19:05.938Z,15.16
2023-05-04T22:21:39.927Z,15.16
2023-05-04T22:24:11.989Z,15.15
2023-05-04T22:26:43.738Z,15.13
2023-05-04T22:29:15.482Z,15.13
2023-05-04T22:31:47.405Z,15.11
2023-05-04T22:34:19.131Z,15.01
2023-05-04T22:36:51.144Z,15.02
2023-05-04T22:39:22.976Z,15.00
2023-05-04T22:41:54.697Z,14.99
2023-05-04T22:44:26.557Z,14.94
2023-05-04T22:46:58.763Z,14.87
2023-05-04T22:49:30.572Z,14.83
2023-05-04T22:52:02.299Z,14.76
2023-05-04T22:54:34.009Z,14.78
2023-05-04T22:57:06.385Z,14.80
2023-05-04T22:59:38.100Z,14.77
2023-05-04T23:02:09.829Z,14.78
2023-05-04T23:04:42.378Z,14.72
2023-05-04T23:07:14.600Z,14.72
2023-05-04T23:09:47.334Z,14.70
2023-05-04T23:12:17.581Z,14.59
2023-05-04T23:14:52.833Z,14.59
2023-05-04T23:17:24.865Z,14.57
2023-05-04T23:19:56.688Z,14.56
2023-05-04T23:22:28.496Z,14.57
2023-05-04T23:25:02.276Z,14.64
2023-05-04T23:27:33.995Z,14.68
2023-05-04T23:30:06.911Z,14.68
2023-05-04T23:32:39.024Z,14.67
2023-05-04T23:35:14.013Z,14.62
2023-05-04T23:37:45.736Z,14.57
2023-05-04T23:40:17.600Z,14.57
2023-05-04T23:42:52.151Z,14.54
2023-05-04T23:45:23.963Z,14.39
2023-05-04T23:47:55.762Z,14.35
2023-05-04T23:50:27.549Z,14.32
2023-05-04T23:52:59.344Z,14.31
2023-05-04T23:55:31.075Z,14.27
2023-05-04T23:58:02.722Z,14.23
